Time;durP1;ratioP1;P1;durP2;ratioP2;P2;SDS_P1;SDS_P2;PMS_P1;PMS_P2;Temp;Humidity;BMP_temperature;BMP_pressure;BME280_temperature;BME280_humidity;BME280_pressure;Samples;Min_cycle;Max_cycle;Signal;HPM_P1;HPM_P2
2020/12/01 00:02:10;;;;;;;5.28;3.00;;;10.40;82.50;;;;;;5045114;28;20029;-73
2020/12/01 00:04:36;;;;;;;5.88;3.25;;;10.40;82.50;;;;;;5045065;28;20082;-73
2020/12/01 00:07:02;;;;;;;5.70;3.35;;;10.30;82.30;;;;;;5028512;28;20057;-73
2020/12/01 00:09:28;;;;;;;5.18;2.83;;;10.30;82.40;;;;;;5045026;28;20047;-73
2020/12/01 00:11:54;;;;;;;6.03;3.13;;;10.20;82.20;;;;;;5044832;28;20033;-73
2020/12/01 00:14:20;;;;;;;5.75;3.13;;;10.30;82.40;;;;;;5044889;28;20032;-73
2020/12/01 00:16:46;;;;;;;5.80;2.97;;;10.20;82.20;;;;;;5028173;28;20032;-74
2020/12/01 00:19:13;;;;;;;5.47;2.70;;;10.20;82.30;;;;;;5044455;28;20056;-72
2020/12/01 00:21:39;;;;;;;6.28;3.15;;;10.20;82.30;;;;;;5038596;28;20033;-74
2020/12/01 00:24:05;;;;;;;4.50;2.78;;;10.20;82.30;;;;;;5029001;28;20037;-74
2020/12/01 00:26:31;;;;;;;6.35;3.25;;;10.20;82.30;;;;;;5027702;28;20028;-73
2020/12/01 00:28:57;;;;;;;6.38;2.90;;;10.20;82.30;;;;;;5033462;28;20104;-73
2020/12/01 00:31:23;;;;;;;7.60;3.10;;;10.10;82.10;;;;;;5048135;28;20119;-74
2020/12/01 00:33:49;;;;;;;9.23;2.90;;;10.10;82.10;;;;;;5030665;28;20029;-74
2020/12/01 00:36:15;;;;;;;4.88;2.88;;;10.10;82.10;;;;;;5048090;28;20028;-74
2020/12/01 00:38:42;;;;;;;11.02;3.05;;;10.00;81.90;;;;;;5046202;28;20126;-73
2020/12/01 00:41:08;;;;;;;5.43;2.72;;;10.10;82.10;;;;;;5028466;28;20040;-73
2020/12/01 00:43:34;;;;;;;7.53;3.28;;;10.00;81.90;;;;;;5045726;28;20063;-72
2020/12/01 00:46:00;;;;;;;6.35;2.40;;;10.00;81.90;;;;;;5046735;28;20059;-73
2020/12/01 00:48:26;;;;;;;5.72;2.97;;;10.00;82.00;;;;;;5045480;28;20395;-73
2020/12/01 00:50:52;;;;;;;5.78;2.75;;;9.90;81.80;;;;;;5027722;28;20594;-73
2020/12/01 00:53:18;;;;;;;4.78;2.30;;;9.90;81.80;;;;;;5044128;28;20052;-73
2020/12/01 00:55:45;;;;;;;7.00;2.65;;;9.90;81.80;;;;;;5044127;28;20037;-74
2020/12/01 00:58:12;;;;;;;3.85;2.67;;;9.80;81.60;;;;;;5027458;28;20032;-72
2020/12/01 01:00:58;;;;;;;6.38;2.88;;;9.80;81.60;;;;;;5045257;28;20040;-72
2020/12/01 01:03:25;;;;;;;6.10;2.70;;;9.80;81.60;;;;;;5043965;28;20033;-72
2020/12/01 01:05:51;;;;;;;5.43;2.33;;;9.80;81.60;;;;;;5044173;28;20505;-74
2020/12/01 01:08:17;;;;;;;7.15;2.28;;;9.70;81.50;;;;;;5045157;28;20658;-74
2020/12/01 01:10:43;;;;;;;9.13;2.65;;;9.70;81.40;;;;;;5043898;28;20130;-73
2020/12/01 01:13:10;;;;;;;3.95;2.58;;;9.60;81.30;;;;;;5045717;28;20470;-73
2020/12/01 01:15:37;;;;;;;9.38;3.00;;;9.60;81.30;;;;;;5043898;28;20025;-74
2020/12/01 01:18:03;;;;;;;6.05;2.72;;;9.60;81.30;;;;;;5027238;28;20185;-73
2020/12/01 01:20:29;;;;;;;6.50;2.60;;;9.60;81.30;;;;;;5023849;28;20075;-75
2020/12/01 01:22:56;;;;;;;4.78;2.65;;;9.60;81.30;;;;;;5023984;28;20030;-73
2020/12/01 01:25:22;;;;;;;6.63;2.67;;;9.50;81.20;;;;;;5024216;28;20461;-74
2020/12/01 01:27:48;;;;;;;5.47;2.47;;;9.50;81.20;;;;;;5025714;28;20033;-74
2020/12/01 01:30:18;;;;;;;5.13;2.10;;;9.50;81.20;;;;;;5043234;28;20490;-74
2020/12/01 01:32:44;;;;;;;6.30;3.13;;;9.50;81.20;;;;;;5043744;28;20456;-74
2020/12/01 01:35:11;;;;;;;8.15;3.05;;;9.40;81.10;;;;;;5027523;28;20040;-73
2020/12/01 01:37:37;;;;;;;5.28;2.53;;;9.40;81.10;;;;;;5045214;28;20120;-73
2020/12/01 01:40:04;;;;;;;7.05;2.53;;;9.30;80.90;;;;;;5045458;28;20096;-73
2020/12/01 01:42:30;;;;;;;6.38;2.40;;;9.30;81.00;;;;;;5047853;28;20519;-73
2020/12/01 01:44:56;;;;;;;4.30;2.63;;;9.30;81.00;;;;;;5048644;28;20033;-72
2020/12/01 01:47:23;;;;;;;5.82;2.50;;;9.30;81.00;;;;;;5047572;28;20415;-73
2020/12/01 01:49:57;;;;;;;6.13;2.28;;;9.20;80.90;;;;;;5031050;28;20021;-73
2020/12/01 01:52:28;;;;;;;5.28;2.40;;;9.20;80.90;;;;;;5047631;28;20033;-73
2020/12/01 01:55:17;;;;;;;7.63;2.55;;;9.20;80.90;;;;;;5047410;28;20055;-74
2020/12/01 01:57:49;;;;;;;4.07;2.45;;;9.20;80.90;;;;;;5048383;28;20044;-73
2020/12/01 02:00:57;;;;;;;6.28;2.15;;;9.10;80.70;;;;;;5047372;28;20037;-72
2020/12/01 02:03:52;;;;;;;7.68;2.42;;;9.10;80.70;;;;;;5041517;28;20037;-73
2020/12/01 02:06:23;;;;;;;6.57;2.95;;;9.00;80.60;;;;;;5045927;28;20072;-74
2020/12/01 02:08:58;;;;;;;2.78;2.03;;;9.00;80.60;;;;;;5046693;28;20047;-75
2020/12/01 02:11:26;;;;;;;6.75;2.55;;;8.90;80.40;;;;;;5046926;28;20507;-73
2020/12/01 02:14:04;;;;;;;8.88;2.97;;;8.90;80.50;;;;;;5047177;28;20056;-73
2020/12/01 02:16:31;;;;;;;8.32;2.50;;;8.90;80.50;;;;;;5030636;28;20090;-73
2020/12/01 02:18:57;;;;;;;5.90;2.63;;;8.90;80.50;;;;;;5013739;28;20052;-72
2020/12/01 02:21:39;;;;;;;4.78;2.17;;;8.80;80.40;;;;;;5047476;28;20029;-73
2020/12/01 02:24:15;;;;;;;3.70;2.40;;;8.80;80.30;;;;;;5048375;28;20317;-74
2020/12/01 02:26:43;;;;;;;3.67;2.20;;;8.70;80.20;;;;;;5046764;28;20029;-73
2020/12/01 02:29:14;;;;;;;6.15;2.28;;;8.70;80.20;;;;;;5046855;28;20055;-73
2020/12/01 02:31:40;;;;;;;5.05;2.38;;;8.70;80.20;;;;;;5046971;28;20475;-73
2020/12/01 02:34:13;;;;;;;5.32;2.30;;;8.70;80.20;;;;;;5047064;28;20402;-73
2020/12/01 02:36:39;;;;;;;5.03;2.22;;;8.60;80.10;;;;;;5048096;28;20094;-74
2020/12/01 02:39:10;;;;;;;3.72;1.90;;;8.60;80.10;;;;;;5047981;28;20055;-73
2020/12/01 02:41:37;;;;;;;7.13;2.58;;;8.50;79.90;;;;;;5046468;28;20036;-71
2020/12/01 02:44:04;;;;;;;6.43;2.42;;;8.50;80.00;;;;;;5046771;28;20057;-73
2020/12/01 02:46:37;;;;;;;8.40;2.95;;;8.50;80.00;;;;;;5045403;22;20050;-78
2020/12/01 02:49:07;;;;;;;4.38;2.30;;;8.40;79.80;;;;;;5032638;28;20026;-79
2020/12/01 02:51:34;;;;;;;5.25;2.33;;;8.40;79.90;;;;;;5020014;28;20058;-80
2020/12/01 02:54:01;;;;;;;4.57;2.20;;;8.30;79.70;;;;;;5027341;28;20371;-76
2020/12/01 02:56:27;;;;;;;5.20;1.80;;;8.30;79.70;;;;;;5012160;28;20037;-79
2020/12/01 02:58:52;;;;;;;4.68;1.92;;;8.30;79.80;;;;;;5011628;28;20092;-80
2020/12/01 03:01:18;;;;;;;4.35;2.08;;;8.20;79.60;;;;;;5011696;28;20033;-77
2020/12/01 03:03:45;;;;;;;2.97;1.80;;;8.20;79.60;;;;;;5025598;28;20030;-77
2020/12/01 03:06:13;;;;;;;4.38;2.40;;;8.10;79.40;;;;;;5030111;28;20029;-80
2020/12/01 03:08:40;;;;;;;4.45;2.15;;;8.10;79.50;;;;;;5012030;28;20055;-79
2020/12/01 03:11:10;;;;;;;3.50;1.95;;;8.10;79.50;;;;;;5009725;28;20052;-78
2020/12/01 03:13:36;;;;;;;2.78;2.00;;;8.00;79.40;;;;;;5012142;28;20133;-78
2020/12/01 03:16:07;;;;;;;10.23;3.20;;;8.00;79.40;;;;;;4993868;28;20030;-80
2020/12/01 03:18:38;;;;;;;4.28;1.85;;;7.90;79.30;;;;;;5011746;28;20378;-79
2020/12/01 03:21:05;;;;;;;4.25;2.20;;;7.90;79.30;;;;;;5011935;28;20049;-80
2020/12/01 03:23:32;;;;;;;7.28;1.80;;;7.90;79.40;;;;;;5009963;28;20034;-79
2020/12/01 03:25:59;;;;;;;3.72;2.10;;;7.80;79.20;;;;;;5010454;28;20033;-77
2020/12/01 03:28:25;;;;;;;2.50;1.98;;;7.80;79.20;;;;;;5010367;28;20434;-79
2020/12/01 03:30:51;;;;;;;4.80;2.03;;;7.80;79.20;;;;;;4993697;28;20121;-79
2020/12/01 03:33:18;;;;;;;3.40;1.83;;;7.70;79.00;;;;;;5011789;28;20057;-79
2020/12/01 03:35:43;;;;;;;5.28;1.90;;;7.70;79.10;;;;;;5011186;28;20041;-80
2020/12/01 03:38:09;;;;;;;8.10;2.65;;;7.70;79.10;;;;;;5011642;28;20038;-79
2020/12/01 03:40:35;;;;;;;5.38;2.20;;;7.70;79.10;;;;;;5010852;28;20322;-78
2020/12/01 03:43:01;;;;;;;2.53;1.50;;;7.60;78.90;;;;;;5009749;28;20036;-78
2020/12/01 03:45:27;;;;;;;6.45;1.83;;;7.60;78.90;;;;;;4993839;28;20034;-79
2020/12/01 03:47:55;;;;;;;3.47;1.60;;;7.60;79.00;;;;;;5011058;28;20045;-80
2020/12/01 03:50:23;;;;;;;3.88;2.28;;;7.50;78.80;;;;;;5010069;28;20025;-77
2020/12/01 03:52:50;;;;;;;3.92;2.38;;;7.50;78.80;;;;;;5009676;28;20489;-78
2020/12/01 03:55:19;;;;;;;4.90;2.10;;;7.50;78.80;;;;;;5009794;28;20112;-79
2020/12/01 03:57:45;;;;;;;5.95;2.03;;;7.40;78.70;;;;;;5011412;28;20037;-79
2020/12/01 04:00:17;;;;;;;4.40;2.30;;;7.40;78.70;;;;;;5011021;28;20038;-77
2020/12/01 04:02:44;;;;;;;6.07;1.98;;;7.30;78.50;;;;;;5008626;28;20033;-79
2020/12/01 04:05:12;;;;;;;5.30;2.30;;;7.30;78.60;;;;;;5009813;28;20486;-77
2020/12/01 04:07:38;;;;;;;5.32;1.80;;;7.30;78.60;;;;;;5009614;28;20057;-83
2020/12/01 04:10:05;;;;;;;3.58;1.98;;;7.30;78.70;;;;;;5009555;28;20030;-81
2020/12/01 04:12:32;;;;;;;3.78;1.67;;;7.20;78.50;;;;;;5011169;28;20430;-78
2020/12/01 04:14:58;;;;;;;4.05;2.10;;;7.20;78.50;;;;;;5009523;28;20037;-79
2020/12/01 04:17:24;;;;;;;5.53;1.98;;;7.10;78.40;;;;;;5010868;28;20109;-80
2020/12/01 04:19:50;;;;;;;3.40;1.83;;;7.10;78.40;;;;;;5009155;28;20037;-80
2020/12/01 04:22:16;;;;;;;5.70;2.38;;;7.10;78.50;;;;;;5010945;28;20062;-79
2020/12/01 04:24:42;;;;;;;4.47;2.45;;;7.00;78.30;;;;;;5009247;28;20034;-79
2020/12/01 04:27:09;;;;;;;6.10;1.83;;;7.00;78.30;;;;;;5009473;28;20037;-78
2020/12/01 04:29:36;;;;;;;3.78;1.73;;;7.00;78.30;;;;;;5010490;28;20030;-79
2020/12/01 04:32:02;;;;;;;2.90;1.52;;;7.00;78.30;;;;;;5009099;28;20033;-78
2020/12/01 04:34:28;;;;;;;5.78;2.00;;;7.00;78.40;;;;;;4992759;28;20091;-78
2020/12/01 04:36:54;;;;;;;3.90;1.65;;;6.90;78.20;;;;;;5010466;28;20489;-80
2020/12/01 04:39:20;;;;;;;4.07;2.03;;;6.90;78.20;;;;;;5010635;28;20046;-78
2020/12/01 04:41:46;;;;;;;3.58;1.92;;;6.90;78.30;;;;;;5008558;28;20080;-79
2020/12/01 04:44:53;;;;;;;4.35;2.03;;;6.80;78.10;;;;;;5009126;28;20457;-79
2020/12/01 04:47:27;;;;;;;6.32;2.33;;;6.80;78.10;;;;;;4992569;28;20054;-81
2020/12/01 04:49:57;;;;;;;5.13;2.30;;;6.80;78.10;;;;;;5009481;28;20101;-81
2020/12/01 04:52:53;;;;;;;6.68;1.90;;;6.80;78.20;;;;;;5009230;28;20056;-81
2020/12/01 04:55:31;;;;;;;3.30;1.80;;;6.80;78.20;;;;;;5009406;28;20041;-79
2020/12/01 04:58:35;;;;;;;5.28;1.98;;;6.70;78.00;;;;;;4992502;28;20158;-78
2020/12/01 05:01:37;;;;;;;3.40;1.92;;;6.70;78.00;;;;;;4992305;28;20065;-77
2020/12/01 05:04:29;;;;;;;2.58;1.60;;;6.70;78.00;;;;;;4997907;28;20116;-79
2020/12/01 05:07:39;;;;;;;6.65;2.55;;;6.70;78.00;;;;;;4989563;28;20033;-77
2020/12/01 05:10:11;;;;;;;3.83;2.13;;;6.70;78.00;;;;;;4992343;28;20034;-79
2020/12/01 05:12:40;;;;;;;2.78;1.60;;;6.70;78.00;;;;;;5008392;28;20512;-80
2020/12/01 05:15:12;;;;;;;4.57;1.80;;;6.70;78.00;;;;;;4992174;28;20030;-78
2020/12/01 05:18:14;;;;;;;5.43;1.75;;;6.70;78.00;;;;;;4992241;28;20026;-78
2020/12/01 05:20:45;;;;;;;6.53;2.17;;;6.60;77.90;;;;;;5008474;28;20034;-79
2020/12/01 05:23:14;;;;;;;2.28;1.70;;;6.60;77.90;;;;;;5009703;28;20065;-78
2020/12/01 05:25:39;;;;;;;5.72;2.00;;;6.60;77.90;;;;;;4991901;28;20355;-77
2020/12/01 05:28:14;;;;;;;2.92;1.83;;;6.60;77.90;;;;;;5009827;28;20087;-77
2020/12/01 05:30:43;;;;;;;4.53;2.17;;;6.60;78.40;;;;;;5008161;28;20106;-78
2020/12/01 05:33:26;;;;;;;3.75;2.20;;;6.60;77.90;;;;;;5008616;28;20034;-79
2020/12/01 05:36:05;;;;;;;6.95;1.88;;;6.50;77.80;;;;;;5009459;28;20118;-78
2020/12/01 05:38:33;;;;;;;3.67;1.83;;;6.60;77.90;;;;;;5009628;28;20220;-78
2020/12/01 05:41:20;;;;;;;6.32;2.40;;;6.50;77.80;;;;;;5011670;28;20034;-78
2020/12/01 05:43:52;;;;;;;4.63;2.83;;;6.50;77.80;;;;;;5021797;28;20025;-78
2020/12/01 05:46:33;;;;;;;7.82;1.98;;;6.50;77.80;;;;;;5023003;28;20045;-77
2020/12/01 05:49:02;;;;;;;3.70;1.73;;;6.50;77.80;;;;;;5016934;28;20071;-80
2020/12/01 05:51:39;;;;;;;3.28;1.65;;;6.40;77.60;;;;;;5024293;28;20112;-79
2020/12/01 05:54:15;;;;;;;2.10;1.30;;;6.40;77.60;;;;;;5014593;28;20125;-78
2020/12/01 05:56:47;;;;;;;6.43;2.15;;;6.40;77.60;;;;;;5024841;28;20075;-79
2020/12/01 05:59:16;;;;;;;5.18;1.98;;;6.30;77.50;;;;;;5025433;28;20034;-77
2020/12/01 06:01:44;;;;;;;5.88;2.20;;;6.30;77.50;;;;;;5020775;28;20041;-77
2020/12/01 06:04:24;;;;;;;3.40;2.00;;;6.30;77.60;;;;;;5016252;28;20086;-78
2020/12/01 06:06:53;;;;;;;2.85;1.60;;;6.30;77.60;;;;;;5006139;28;20137;-77
2020/12/01 06:09:36;;;;;;;3.03;1.83;;;6.20;77.40;;;;;;5021189;28;20041;-79
2020/12/01 06:12:37;;;;;;;3.47;1.80;;;6.20;77.50;;;;;;5019364;28;20140;-77
2020/12/01 06:15:10;;;;;;;5.05;1.75;;;6.10;77.30;;;;;;5020370;28;20259;-79
2020/12/01 06:17:49;;;;;;;2.43;2.00;;;6.10;77.40;;;;;;5011634;28;20041;-78
2020/12/01 06:20:40;;;;;;;3.83;2.08;;;6.10;77.40;;;;;;5022406;28;20038;-78
2020/12/01 06:23:25;;;;;;;4.28;1.88;;;6.10;77.50;;;;;;5005746;28;20100;-78
2020/12/01 06:26:09;;;;;;;3.30;1.73;;;6.10;77.50;;;;;;5006907;28;20034;-77
2020/12/01 06:28:35;;;;;;;2.67;1.73;;;6.10;77.50;;;;;;5016231;28;20029;-80
2020/12/01 06:31:40;;;;;;;5.38;2.00;;;6.00;77.30;;;;;;5023935;28;20044;-83
2020/12/01 06:34:36;;;;;;;4.07;1.95;;;6.00;77.30;;;;;;4991269;28;20045;-78
2020/12/01 06:37:26;;;;;;;3.10;2.03;;;6.00;77.30;;;;;;5009331;28;20137;-79
2020/12/01 06:40:01;;;;;;;3.92;2.65;;;6.00;77.30;;;;;;5026300;28;20053;-78
2020/12/01 06:42:47;;;;;;;5.50;2.85;;;6.00;77.30;;;;;;5028906;28;20037;-77
2020/12/01 06:45:30;;;;;;;4.35;2.35;;;6.00;77.30;;;;;;5027918;28;20200;-76
2020/12/01 06:48:20;;;;;;;2.50;1.77;;;5.90;77.20;;;;;;5010889;28;20049;-78
2020/12/01 06:51:08;;;;;;;5.38;2.15;;;5.90;77.20;;;;;;5027253;28;20132;-79
2020/12/01 06:53:36;;;;;;;3.60;2.40;;;5.90;77.20;;;;;;5016253;28;20029;-80
2020/12/01 06:56:05;;;;;;;3.47;2.13;;;5.90;77.30;;;;;;5007753;28;20049;-81
2020/12/01 06:58:40;;;;;;;2.83;1.95;;;5.90;77.30;;;;;;5005108;28;20543;-82
2020/12/01 07:01:15;;;;;;;5.68;3.00;;;5.80;77.60;;;;;;5027846;28;20079;-81
2020/12/01 07:03:41;;;;;;;4.65;2.38;;;5.80;77.20;;;;;;5027800;28;20057;-84
2020/12/01 07:06:36;;;;;;;2.88;2.05;;;5.80;77.20;;;;;;5011592;28;20029;-82
2020/12/01 07:09:10;;;;;;;;;;;5.70;77.00;;;;;;5027577;28;20719;-82
2020/12/01 07:11:58;;;;;;;4.35;2.40;;;5.80;77.20;;;;;;5021996;28;19972;-78
2020/12/01 07:14:46;;;;;;;2.22;2.03;;;5.70;77.00;;;;;;5013409;28;20021;-77
2020/12/01 07:17:27;;;;;;;4.03;2.28;;;5.70;77.00;;;;;;5024001;28;20060;-81
2020/12/01 07:19:58;;;;;;;4.82;2.13;;;5.60;76.90;;;;;;5009490;28;20045;-82
2020/12/01 07:22:46;;;;;;;4.10;2.25;;;5.60;76.90;;;;;;5027523;28;20132;-80
2020/12/01 07:25:21;;;;;;;6.25;3.05;;;5.60;76.90;;;;;;5010102;28;20025;-81
2020/12/01 07:27:53;;;;;;;3.47;2.88;;;5.60;77.00;;;;;;5026426;28;20086;-80
2020/12/01 07:30:25;;;;;;;4.78;2.47;;;5.50;76.80;;;;;;5026932;28;20508;-79
2020/12/01 07:32:57;;;;;;;2.88;2.60;;;5.50;76.80;;;;;;5027863;28;20021;-77
2020/12/01 07:35:44;;;;;;;6.05;2.38;;;5.50;76.80;;;;;;5026395;28;20079;-76
2020/12/01 07:38:31;;;;;;;6.00;3.05;;;5.50;76.80;;;;;;5025943;28;20102;-78
2020/12/01 07:41:10;;;;;;;5.03;2.42;;;5.50;76.80;;;;;;5010098;28;20118;-77
2020/12/01 07:43:36;;;;;;;4.53;2.53;;;5.40;76.60;;;;;;5025184;28;20373;-76
2020/12/01 07:46:04;;;;;;;5.32;3.15;;;5.40;76.60;;;;;;5026311;28;20128;-80
2020/12/01 07:48:30;;;;;;;4.95;2.95;;;5.40;76.70;;;;;;5027234;28;20302;-77
2020/12/01 07:51:08;;;;;;;5.75;3.20;;;5.40;76.70;;;;;;5026199;28;20060;-79
2020/12/01 07:53:40;;;;;;;6.32;3.22;;;5.40;76.80;;;;;;5027831;28;20854;-79
2020/12/01 07:56:12;;;;;;;4.45;2.80;;;5.40;76.80;;;;;;5009648;28;20420;-78
2020/12/01 07:58:38;;;;;;;5.72;3.38;;;5.30;76.60;;;;;;5026940;28;20041;-78
2020/12/01 08:01:15;;;;;;;8.40;3.45;;;5.30;76.60;;;;;;5026542;28;20080;-78
2020/12/01 08:03:42;;;;;;;6.40;3.83;;;5.30;76.60;;;;;;5026165;28;20033;-80
2020/12/01 08:06:13;;;;;;;9.80;3.88;;;5.30;76.70;;;;;;5026074;28;20458;-78
2020/12/01 08:08:42;;;;;;;7.90;3.90;;;5.30;76.70;;;;;;5027175;28;20025;-79
2020/12/01 08:11:20;;;;;;;6.95;3.90;;;5.30;76.70;;;;;;5027663;28;20094;-79
2020/12/01 08:13:51;;;;;;;6.72;4.53;;;5.20;76.50;;;;;;5026720;28;20033;-78
2020/12/01 08:16:29;;;;;;;4.57;3.45;;;5.30;76.70;;;;;;5025878;28;20045;-80
2020/12/01 08:18:56;;;;;;;5.63;4.53;;;5.20;76.50;;;;;;5025184;28;20041;-80
2020/12/01 08:21:29;;;;;;;8.77;4.93;;;5.20;76.50;;;;;;5027311;28;20636;-79
2020/12/01 08:24:00;;;;;;;6.10;4.40;;;5.20;76.60;;;;;;5024276;28;20052;-79
2020/12/01 08:26:29;;;;;;;6.72;4.50;;;5.20;76.60;;;;;;5025737;28;20448;-80
2020/12/01 08:29:14;;;;;;;5.90;3.97;;;5.20;76.60;;;;;;5006615;28;20448;-77
2020/12/01 08:31:58;;;;;;;9.57;4.82;;;5.20;76.60;;;;;;5024543;28;20034;-78
2020/12/01 08:34:31;;;;;;;9.57;5.20;;;5.20;76.60;;;;;;5026937;28;20131;-78
2020/12/01 08:37:15;;;;;;;8.40;4.70;;;5.20;76.60;;;;;;5025514;28;20029;-77
2020/12/01 08:39:50;;;;;;;8.30;4.57;;;5.30;76.70;;;;;;5026195;28;20038;-77
2020/12/01 08:42:27;;;;;;;7.55;4.82;;;5.20;76.50;;;;;;5025029;28;20029;-78
2020/12/01 08:45:12;;;;;;;6.57;4.32;;;5.30;76.70;;;;;;5024162;28;20033;-76
2020/12/01 08:47:39;;;;;;;9.25;5.18;;;5.30;76.60;;;;;;5024556;28;20473;-76
2020/12/01 08:50:23;;;;;;;6.07;4.47;;;5.30;76.60;;;;;;5005892;28;20061;-77
2020/12/01 08:52:49;;;;;;;9.40;5.00;;;5.30;76.60;;;;;;5006522;28;20052;-77
2020/12/01 08:55:29;;;;;;;5.72;4.50;;;5.30;76.60;;;;;;5006541;28;20428;-77
2020/12/01 08:58:12;;;;;;;9.63;4.57;;;5.30;76.60;;;;;;5007423;28;20034;-78
2020/12/01 09:00:52;;;;;;;6.97;4.40;;;5.30;76.60;;;;;;5024666;28;20052;-78
2020/12/01 09:03:18;;;;;;;8.25;3.95;;;5.40;76.70;;;;;;5026145;28;20183;-78
2020/12/01 09:05:49;;;;;;;4.95;4.25;;;5.30;76.60;;;;;;5023908;28;20120;-77
2020/12/01 09:21:53;;;;;;;7.32;4.00;;;5.40;76.70;;;;;;5026090;28;20361;-81
2020/12/01 09:24:26;;;;;;;5.82;3.50;;;5.50;76.90;;;;;;5025820;28;20544;-81
2020/12/01 09:27:11;;;;;;;10.70;4.57;;;5.50;76.90;;;;;;5024277;28;20029;-82
2020/12/01 09:29:38;;;;;;;6.82;3.85;;;5.50;76.80;;;;;;5024693;28;20037;-78
2020/12/01 09:32:07;;;;;;;6.15;3.90;;;5.60;77.00;;;;;;5024865;28;20111;-79
2020/12/01 09:34:34;;;;;;;6.22;4.07;;;5.60;77.00;;;;;;5025795;28;20497;-77
2020/12/01 09:37:02;;;;;;;6.82;3.72;;;5.60;77.00;;;;;;5024339;28;20034;-78
2020/12/01 09:39:30;;;;;;;6.72;4.13;;;5.60;77.00;;;;;;5024055;28;20049;-79
2020/12/01 09:42:23;;;;;;;5.97;4.32;;;5.70;77.10;;;;;;5007307;28;20037;-77
2020/12/01 09:47:20;;;;;;;7.03;3.33;;;5.80;77.30;;;;;;5024145;28;20386;-77
2020/12/01 09:49:46;;;;;;;6.15;2.97;;;5.90;77.60;;;;;;5025571;28;20170;-76
2020/12/01 09:52:19;;;;;;;7.22;3.53;;;6.00;77.70;;;;;;5023342;28;20093;-77
2020/12/01 09:54:53;;;;;;;9.20;3.63;;;6.10;77.80;;;;;;5025349;28;20121;-77
2020/12/01 10:00:01;;;;;;;8.43;4.22;;;6.30;77.80;;;;;;5023357;28;20037;-77
2020/12/01 10:14:24;;;;;;;11.88;3.20;;;6.50;77.80;;;;;;5026350;28;20051;-77
2020/12/01 10:35:23;;;;;;;7.35;3.15;;;6.90;78.50;;;;;;5026523;28;20156;-77
2020/12/01 10:37:52;;;;;;;9.38;3.55;;;6.90;78.40;;;;;;5028327;28;20041;-76
2020/12/01 10:40:18;;;;;;;7.50;3.15;;;6.90;78.40;;;;;;5028739;28;20044;-78
2020/12/01 10:42:44;;;;;;;5.43;3.20;;;7.00;78.60;;;;;;5027273;28;20091;-78
2020/12/01 10:45:10;;;;;;;9.80;3.50;;;7.00;78.60;;;;;;5028459;28;20033;-77
2020/12/01 10:47:36;;;;;;;8.45;3.40;;;7.00;78.60;;;;;;5026690;28;20053;-78
2020/12/01 10:50:05;;;;;;;5.60;2.45;;;7.10;78.80;;;;;;5027670;28;20083;-80
2020/12/01 10:52:31;;;;;;;7.40;3.33;;;7.10;78.80;;;;;;5028518;28;20021;-77
2020/12/01 10:54:57;;;;;;;6.13;3.38;;;7.10;78.80;;;;;;5028927;28;20389;-79
2020/12/01 10:57:23;;;;;;;9.70;3.33;;;7.10;78.70;;;;;;5028854;28;20021;-80
2020/12/01 10:59:49;;;;;;;6.95;2.72;;;7.20;78.90;;;;;;5026615;28;20037;-79
2020/12/01 11:02:15;;;;;;;4.90;2.95;;;7.20;78.80;;;;;;5028444;28;20026;-77
2020/12/01 11:04:41;;;;;;;4.68;2.78;;;7.20;78.80;;;;;;5028489;28;20087;-79
2020/12/01 11:07:07;;;;;;;8.10;2.80;;;7.30;79.00;;;;;;5027133;28;20041;-79
2020/12/01 11:09:34;;;;;;;3.75;2.30;;;7.30;79.00;;;;;;5028453;28;20030;-81
2020/12/01 11:12:00;;;;;;;8.45;3.00;;;7.30;78.90;;;;;;5027584;28;20025;-79
2020/12/01 11:14:26;;;;;;;6.40;2.70;;;7.30;78.90;;;;;;5027389;28;20373;-79
2020/12/01 11:16:53;;;;;;;5.22;2.58;;;7.40;79.10;;;;;;5028218;28;20043;-78
2020/12/01 11:19:19;;;;;;;9.48;2.50;;;7.40;79.00;;;;;;5027854;28;20128;-80
2020/12/01 11:21:45;;;;;;;3.97;2.15;;;7.40;79.00;;;;;;5028493;28;20125;-80
2020/12/01 11:24:11;;;;;;;6.88;2.30;;;7.40;79.00;;;;;;5028075;28;20492;-79
2020/12/01 11:26:37;;;;;;;6.82;2.60;;;7.40;79.00;;;;;;5028082;28;20168;-80
2020/12/01 11:29:04;;;;;;;4.32;2.85;;;7.50;79.10;;;;;;5028135;28;20034;-80
2020/12/01 11:31:32;;;;;;;4.50;2.15;;;7.50;79.10;;;;;;5026661;28;20025;-80
2020/12/01 11:34:01;;;;;;;4.97;2.40;;;7.50;79.10;;;;;;5028684;28;20053;-80
2020/12/01 11:36:28;;;;;;;4.47;2.38;;;7.50;79.10;;;;;;5028665;28;20056;-79
2020/12/01 11:38:54;;;;;;;8.85;2.50;;;7.50;79.10;;;;;;5027885;28;20041;-80
2020/12/01 11:41:20;;;;;;;4.38;2.65;;;7.60;79.30;;;;;;5027003;28;20335;-81
2020/12/01 11:43:46;;;;;;;3.80;2.42;;;7.60;79.30;;;;;;5027648;28;20030;-80
2020/12/01 11:46:13;;;;;;;6.72;3.15;;;7.60;79.30;;;;;;5027388;28;20045;-81
2020/12/01 11:48:38;;;;;;;5.32;2.92;;;7.60;79.30;;;;;;5027398;28;20033;-80
2020/12/01 11:51:04;;;;;;;2.80;2.40;;;7.70;79.50;;;;;;5028333;28;20090;-79
2020/12/01 11:53:31;;;;;;;7.55;2.92;;;7.70;79.50;;;;;;5027893;28;20025;-81
2020/12/01 11:55:57;;;;;;;2.72;2.15;;;7.80;79.60;;;;;;5028071;28;20026;-80
2020/12/01 11:58:22;;;;;;;5.18;2.35;;;7.80;79.60;;;;;;5027494;28;20044;-81
2020/12/01 12:00:48;;;;;;;6.97;2.67;;;7.80;79.50;;;;;;5026437;28;20397;-79
2020/12/01 12:03:15;;;;;;;4.82;2.17;;;7.90;79.70;;;;;;5026184;28;20030;-79
2020/12/01 12:05:40;;;;;;;7.32;3.03;;;7.90;79.70;;;;;;5027437;28;20032;-78
2020/12/01 12:08:06;;;;;;;7.50;2.33;;;7.90;79.70;;;;;;5027075;28;20033;-79
2020/12/01 12:10:32;;;;;;;5.80;2.92;;;8.00;79.80;;;;;;5009614;28;20036;-81
2020/12/01 12:12:58;;;;;;;5.38;2.47;;;8.00;79.80;;;;;;5025989;28;20034;-78
2020/12/01 12:15:24;;;;;;;5.22;2.22;;;8.10;80.00;;;;;;5025596;28;20025;-81
2020/12/01 12:17:50;;;;;;;5.72;2.10;;;8.10;79.90;;;;;;5025470;28;20380;-80
2020/12/01 12:20:16;;;;;;;3.08;2.05;;;8.20;79.90;;;;;;5025652;28;20099;-78
2020/12/01 12:22:42;;;;;;;6.13;2.50;;;8.20;79.70;;;;;;5027022;28;20093;-77
2020/12/01 12:25:08;;;;;;;6.10;2.25;;;8.20;79.40;;;;;;5026447;28;20029;-81
2020/12/01 12:27:34;;;;;;;8.18;2.38;;;8.30;79.40;;;;;;5026953;28;20028;-81
2020/12/01 12:30:00;;;;;;;5.70;2.63;;;8.30;79.20;;;;;;5026885;28;20040;-81
2020/12/01 12:32:26;;;;;;;8.18;3.03;;;8.30;79.00;;;;;;5027232;28;20041;-81
2020/12/01 12:34:52;;;;;;;6.82;2.45;;;8.30;78.80;;;;;;5025860;28;20029;-78
2020/12/01 12:37:18;;;;;;;7.10;2.08;;;8.40;78.80;;;;;;5026926;28;20033;-84
2020/12/01 12:39:44;;;;;;;5.63;2.22;;;8.40;78.60;;;;;;5026641;28;20045;-79
2020/12/01 12:42:09;;;;;;;2.97;1.70;;;8.40;78.40;;;;;;5025683;28;20372;-81
2020/12/01 12:44:36;;;;;;;4.80;1.90;;;8.50;78.40;;;;;;5026453;28;20095;-81
2020/12/01 12:47:02;;;;;;;4.90;2.10;;;8.50;78.10;;;;;;5027066;28;20146;-85
2020/12/01 12:49:28;;;;;;;5.68;2.45;;;8.50;77.90;;;;;;5008587;28;20173;-82
2020/12/01 12:51:54;;;;;;;6.80;2.33;;;8.50;77.80;;;;;;5027057;28;20192;-83
2020/12/01 12:54:20;;;;;;;9.07;2.70;;;8.60;77.80;;;;;;5027649;28;20091;-81
2020/12/01 12:56:46;;;;;;;10.05;3.42;;;8.60;77.60;;;;;;5027720;28;20048;-81
2020/12/01 12:59:12;;;;;;;6.13;1.88;;;8.60;77.40;;;;;;5027381;28;20045;-82
2020/12/01 13:01:38;;;;;;;6.38;2.42;;;8.70;77.30;;;;;;5009221;28;20526;-84
2020/12/01 13:04:04;;;;;;;4.55;1.85;;;8.70;77.10;;;;;;5027258;28;20044;-83
2020/12/01 13:06:30;;;;;;;8.80;2.08;;;8.70;76.90;;;;;;5027024;28;20072;-82
2020/12/01 13:08:56;;;;;;;8.20;2.97;;;8.70;76.70;;;;;;5027286;28;20033;-80
2020/12/01 13:11:22;;;;;;;5.03;2.15;;;8.70;76.50;;;;;;5026886;28;20208;-83
2020/12/01 13:13:48;;;;;;;6.68;2.13;;;8.80;76.50;;;;;;5025454;28;20088;-82
2020/12/01 13:16:14;;;;;;;3.83;2.00;;;8.80;76.30;;;;;;5009340;28;20037;-82
2020/12/01 13:18:41;;;;;;;4.50;2.40;;;8.80;76.20;;;;;;5026420;28;20072;-81
2020/12/01 13:21:07;;;;;;;7.25;2.05;;;8.80;75.90;;;;;;5027367;28;20039;-80
2020/12/01 13:23:33;;;;;;;5.78;2.13;;;8.80;75.80;;;;;;5008666;28;20168;-81
2020/12/01 13:26:00;;;;;;;4.18;2.20;;;8.80;75.70;;;;;;5008585;28;20033;-79
2020/12/01 13:28:26;;;;;;;7.82;2.28;;;8.80;75.50;;;;;;5027885;28;20095;-83
2020/12/01 13:30:52;;;;;;;7.05;2.30;;;8.80;75.40;;;;;;5036382;28;20457;-85
2020/12/01 13:33:18;;;;;;;6.45;2.13;;;8.80;75.30;;;;;;5047748;28;20036;-86
2020/12/01 13:35:45;;;;;;;3.95;2.00;;;8.80;75.10;;;;;;5049384;28;20025;-83
2020/12/01 13:38:11;;;;;;;6.25;3.05;;;8.80;75.00;;;;;;5047984;28;20267;-83
2020/12/01 13:40:37;;;;;;;9.82;2.75;;;8.80;74.90;;;;;;5030237;28;20443;-82
2020/12/01 13:43:03;;;;;;;7.07;2.75;;;8.80;74.80;;;;;;5030692;28;20041;-83
2020/12/01 13:45:29;;;;;;;6.85;3.30;;;8.80;74.70;;;;;;5030747;28;20482;-82
2020/12/01 13:47:56;;;;;;;5.53;2.95;;;8.80;74.50;;;;;;5030128;28;20107;-84
2020/12/01 13:50:24;;;;;;;6.90;3.50;;;8.80;75.00;;;;;;5030393;28;20025;-80
2020/12/01 13:52:50;;;;;;;5.95;3.00;;;8.90;74.50;;;;;;5029457;28;20033;-81
2020/12/01 13:55:18;;;;;;;5.15;2.58;;;8.90;74.40;;;;;;5030647;28;20572;-81
2020/12/01 13:57:44;;;;;;;10.63;3.03;;;8.90;74.20;;;;;;5031149;28;20512;-82
2020/12/01 14:00:26;;;;;;;5.93;2.55;;;8.90;74.10;;;;;;5031080;28;20453;-81
2020/12/01 14:02:53;;;;;;;7.45;2.42;;;8.90;73.90;;;;;;5030984;28;20052;-82
2020/12/01 14:05:20;;;;;;;8.02;2.38;;;8.90;73.90;;;;;;5030374;28;20104;-80